createdAt,value
2023-02-05T00:02:06.499Z,9.90
2023-02-05T00:04:34.702Z,9.75
2023-02-05T00:07:02.807Z,10.63
2023-02-05T00:09:31.069Z,10.63
2023-02-05T00:11:59.805Z,10.65
2023-02-05T00:14:27.736Z,10.23
2023-02-05T00:16:55.780Z,9.98
2023-02-05T00:19:25.383Z,9.40
2023-02-05T00:21:53.271Z,10.82
2023-02-05T00:24:21.140Z,9.88
2023-02-05T00:26:49.085Z,8.80
2023-02-05T00:29:17.057Z,8.63
2023-02-05T00:31:45.126Z,8.55
2023-02-05T00:34:13.282Z,8.80
2023-02-05T00:36:42.826Z,9.65
2023-02-05T00:39:11.424Z,7.93
2023-02-05T00:41:39.740Z,8.43
2023-02-05T00:44:07.995Z,7.90
2023-02-05T00:46:35.877Z,7.68
2023-02-05T00:49:03.954Z,6.70
2023-02-05T00:51:31.835Z,6.63
2023-02-05T00:54:01.613Z,7.20
2023-02-05T00:56:29.557Z,9.13
2023-02-05T00:58:57.779Z,7.85
2023-02-05T01:01:25.719Z,7.38
2023-02-05T01:03:55.026Z,7.03
2023-02-05T01:06:22.930Z,8.75
2023-02-05T01:08:50.775Z,8.57
2023-02-05T01:11:20.866Z,9.65
2023-02-05T01:13:48.773Z,8.68
2023-02-05T01:16:16.847Z,8.43
2023-02-05T01:18:44.766Z,7.93
2023-02-05T01:21:12.981Z,9.20
2023-02-05T01:23:40.886Z,9.75
2023-02-05T01:26:09.010Z,10.13
2023-02-05T01:28:38.245Z,9.27
2023-02-05T01:31:06.560Z,7.35
2023-02-05T01:33:34.536Z,8.77
2023-02-05T01:36:02.478Z,7.70
2023-02-05T01:38:30.355Z,9.00
2023-02-05T01:40:59.888Z,9.02
2023-02-05T01:43:27.839Z,9.05
2023-02-05T01:46:19.392Z,9.20
2023-02-05T01:48:51.661Z,8.20
2023-02-05T01:51:19.870Z,8.25
2023-02-05T01:53:49.625Z,8.40
2023-02-05T01:56:21.603Z,8.52
2023-02-05T01:58:54.002Z,8.85
2023-02-05T02:01:23.931Z,8.05
2023-02-05T02:03:54.617Z,8.40
2023-02-05T02:06:22.567Z,8.85
2023-02-05T02:08:50.443Z,9.02
2023-02-05T02:11:22.232Z,8.82
2023-02-05T02:13:52.679Z,8.63
2023-02-05T02:16:21.297Z,8.35
2023-02-05T02:18:51.128Z,8.23
2023-02-05T02:21:42.087Z,7.55
2023-02-05T02:24:41.314Z,8.85
2023-02-05T02:27:36.952Z,8.80
2023-02-05T02:30:12.963Z,9.25
2023-02-05T02:32:43.651Z,9.77
2023-02-05T02:35:18.017Z,8.55
2023-02-05T02:37:50.934Z,9.05
2023-02-05T02:40:23.261Z,8.80
2023-02-05T02:42:58.744Z,8.80
2023-02-05T02:45:29.703Z,8.63
2023-02-05T02:48:00.418Z,8.60
2023-02-05T02:50:34.675Z,9.27
2023-02-05T02:53:05.515Z,8.90
2023-02-05T02:55:38.959Z,7.97
2023-02-05T02:58:11.202Z,9.38
2023-02-05T03:00:42.428Z,9.48
2023-02-05T03:03:13.447Z,8.55
2023-02-05T03:05:44.832Z,9.07
2023-02-05T03:08:19.123Z,9.20
2023-02-05T03:10:51.815Z,8.70
2023-02-05T03:13:21.321Z,8.98
2023-02-05T03:15:55.695Z,8.98
2023-02-05T03:18:24.800Z,8.18
2023-02-05T03:20:56.485Z,8.77
2023-02-05T03:23:25.504Z,8.38
2023-02-05T03:25:53.440Z,8.50
2023-02-05T03:28:28.687Z,7.80
2023-02-05T03:31:10.460Z,7.75
2023-02-05T03:33:45.407Z,7.63
2023-02-05T03:36:31.109Z,9.02
2023-02-05T03:39:22.268Z,7.90
2023-02-05T03:41:57.083Z,7.93
2023-02-05T03:44:55.524Z,9.50
2023-02-05T03:47:35.951Z,8.10
2023-02-05T03:50:13.838Z,8.13
2023-02-05T03:52:46.316Z,8.10
2023-02-05T03:55:19.450Z,7.75
2023-02-05T03:57:54.375Z,8.50
2023-02-05T04:00:25.924Z,7.18
2023-02-05T04:02:55.684Z,7.75
2023-02-05T04:05:27.767Z,7.50
2023-02-05T04:07:57.581Z,6.70
2023-02-05T04:10:31.087Z,7.88
2023-02-05T04:13:01.602Z,6.88
2023-02-05T04:15:31.981Z,6.93
2023-02-05T04:18:02.350Z,6.38
2023-02-05T04:20:31.540Z,6.50
2023-02-05T04:23:00.844Z,6.75
2023-02-05T04:25:30.896Z,6.70
2023-02-05T04:28:01.867Z,6.07
2023-02-05T04:30:32.811Z,6.43
2023-02-05T04:33:01.452Z,7.10
2023-02-05T04:35:30.264Z,6.38
2023-02-05T04:37:58.191Z,7.18
2023-02-05T04:40:26.085Z,6.88
2023-02-05T04:42:54.030Z,8.02
2023-02-05T04:45:22.570Z,7.45
2023-02-05T04:47:51.757Z,7.63
2023-02-05T04:50:19.763Z,6.53
2023-02-05T04:52:47.614Z,6.50
2023-02-05T04:55:15.662Z,7.00
2023-02-05T04:57:43.514Z,6.00
2023-02-05T05:00:12.816Z,6.78
2023-02-05T05:02:40.694Z,6.80
2023-02-05T05:05:11.865Z,7.28
2023-02-05T05:07:39.806Z,6.53
2023-02-05T05:10:08.721Z,6.63
2023-02-05T05:12:37.645Z,6.22
2023-02-05T05:15:07.622Z,6.38
2023-02-05T05:17:36.333Z,7.10
2023-02-05T05:20:05.149Z,6.28
2023-02-05T05:22:34.978Z,6.60
2023-02-05T05:25:03.016Z,6.03
2023-02-05T05:27:30.874Z,6.13
2023-02-05T05:29:58.765Z,6.40
2023-02-05T05:32:26.639Z,5.50
2023-02-05T05:34:57.065Z,4.60
2023-02-05T05:37:25.067Z,4.90
2023-02-05T05:40:11.698Z,5.20
2023-02-05T05:42:57.377Z,5.88
2023-02-05T05:45:25.680Z,5.20
2023-02-05T05:47:53.544Z,5.85
2023-02-05T05:50:21.465Z,5.95
2023-02-05T05:52:49.346Z,5.63
2023-02-05T05:55:18.832Z,5.43
2023-02-05T05:57:46.739Z,5.78
2023-02-05T06:00:15.863Z,5.38
2023-02-05T06:02:44.697Z,5.13
2023-02-05T06:05:14.175Z,5.15
2023-02-05T06:07:42.029Z,5.85
2023-02-05T06:10:10.278Z,4.80
2023-02-05T06:12:39.496Z,5.47
2023-02-05T06:15:08.508Z,5.90
2023-02-05T06:17:36.400Z,4.88
2023-02-05T06:20:04.396Z,4.85
2023-02-05T06:22:32.336Z,5.90
2023-02-05T06:25:00.207Z,6.43
2023-02-05T06:27:28.057Z,5.47
2023-02-05T06:29:57.276Z,6.00
2023-02-05T06:32:26.809Z,6.05
2023-02-05T06:34:54.882Z,4.60
2023-02-05T06:37:34.095Z,4.85
2023-02-05T06:40:15.517Z,5.53
2023-02-05T06:42:43.535Z,5.45
2023-02-05T06:45:13.127Z,6.30
2023-02-05T06:47:41.015Z,6.68
2023-02-05T06:50:09.512Z,7.10
2023-02-05T06:52:37.459Z,7.80
2023-02-05T06:55:05.922Z,7.60
2023-02-05T06:57:33.877Z,5.97
2023-02-05T07:00:01.719Z,6.20
2023-02-05T07:02:31.179Z,5.30
2023-02-05T07:04:59.108Z,6.10
2023-02-05T07:07:27.003Z,6.82
2023-02-05T07:09:54.944Z,6.70
2023-02-05T07:12:23.173Z,9.15
2023-02-05T07:14:51.063Z,9.27
2023-02-05T07:17:19.040Z,9.38
2023-02-05T07:19:48.361Z,6.25
2023-02-05T07:22:16.995Z,5.63
2023-02-05T07:24:44.850Z,5.57
2023-02-05T07:27:12.761Z,9.30
2023-02-05T07:29:40.615Z,9.23
2023-02-05T07:32:08.586Z,7.10
2023-02-05T07:34:36.570Z,8.65
2023-02-05T07:37:05.887Z,6.63
2023-02-05T07:39:34.365Z,8.15
2023-02-05T07:42:02.501Z,10.10
2023-02-05T07:44:38.676Z,9.30
2023-02-05T07:47:06.584Z,8.27
2023-02-05T07:49:34.506Z,5.80
2023-02-05T07:52:02.400Z,6.20
2023-02-05T07:54:31.624Z,7.38
2023-02-05T07:57:00.667Z,5.85
2023-02-05T07:59:28.977Z,5.82
2023-02-05T08:01:56.882Z,5.78
2023-02-05T08:04:24.823Z,6.10
2023-02-05T08:06:52.820Z,5.43
2023-02-05T08:09:20.674Z,5.60
2023-02-05T08:11:49.932Z,6.55
2023-02-05T08:14:17.836Z,5.82
2023-02-05T08:16:45.727Z,6.15
2023-02-05T08:19:16.460Z,6.30
2023-02-05T08:21:44.356Z,6.55
2023-02-05T08:24:12.409Z,7.78
2023-02-05T08:26:40.768Z,6.63
2023-02-05T08:29:11.012Z,5.50
2023-02-05T08:31:39.300Z,6.32
2023-02-05T08:34:07.173Z,6.38
2023-02-05T08:36:35.182Z,7.10
2023-02-05T08:39:03.063Z,6.70
2023-02-05T08:41:30.971Z,6.93
2023-02-05T08:43:58.836Z,7.47
2023-02-05T08:46:33.862Z,44.83
2023-02-05T08:49:11.689Z,9.43
2023-02-05T08:51:39.546Z,7.38
2023-02-05T08:54:12.880Z,7.40
2023-02-05T08:56:41.008Z,7.40
2023-02-05T08:59:09.437Z,8.35
2023-02-05T09:01:50.426Z,9.38
2023-02-05T09:04:21.383Z,7.68
2023-02-05T09:06:49.368Z,8.05
2023-02-05T09:09:17.498Z,8.68
2023-02-05T09:11:46.970Z,9.40
2023-02-05T09:14:15.284Z,9.05
2023-02-05T09:16:44.588Z,8.73
2023-02-05T09:19:12.475Z,9.85
2023-02-05T09:21:41.642Z,10.18
2023-02-05T09:24:09.531Z,10.93
2023-02-05T09:26:37.457Z,10.20
2023-02-05T09:29:05.360Z,10.43
2023-02-05T09:31:33.326Z,10.70
2023-02-05T09:34:04.532Z,9.77
2023-02-05T09:36:32.423Z,10.27
2023-02-05T09:39:13.038Z,10.27
2023-02-05T09:41:50.580Z,10.80
2023-02-05T09:44:26.047Z,9.68
2023-02-05T09:47:00.947Z,10.00
2023-02-05T09:49:34.419Z,10.50
2023-02-05T09:52:05.784Z,11.05
2023-02-05T09:54:39.656Z,10.57
2023-02-05T09:57:13.058Z,11.65
2023-02-05T09:59:45.984Z,11.15
2023-02-05T10:02:25.708Z,12.25
2023-02-05T10:04:55.723Z,10.80
2023-02-05T10:07:29.422Z,11.43
2023-02-05T10:10:24.555Z,10.23
2023-02-05T10:13:28.431Z,10.40
2023-02-05T10:16:23.127Z,11.15
2023-02-05T10:19:03.314Z,12.38
2023-02-05T10:21:49.672Z,10.63
2023-02-05T10:24:29.576Z,12.70
2023-02-05T10:27:05.739Z,11.65
2023-02-05T10:29:40.801Z,12.23
2023-02-05T10:32:18.778Z,11.57
2023-02-05T10:35:03.676Z,11.40
2023-02-05T10:37:39.698Z,11.32
2023-02-05T10:40:16.311Z,10.95
2023-02-05T10:42:49.003Z,12.15
2023-02-05T10:45:21.146Z,11.00
2023-02-05T10:48:01.860Z,10.38
2023-02-05T10:50:37.721Z,8.60
2023-02-05T10:53:07.217Z,8.30
2023-02-05T10:55:35.447Z,8.80
2023-02-05T10:58:16.956Z,9.23
2023-02-05T11:00:45.984Z,8.38
2023-02-05T11:03:18.396Z,8.23
2023-02-05T11:05:47.996Z,8.70
2023-02-05T11:08:36.904Z,10.00
2023-02-05T11:11:05.835Z,10.40
2023-02-05T11:13:39.063Z,10.57
2023-02-05T11:16:09.160Z,9.40
2023-02-05T11:18:40.566Z,8.07
2023-02-05T11:21:09.748Z,7.55
2023-02-05T11:23:41.026Z,8.10
2023-02-05T11:26:17.597Z,8.20
2023-02-05T11:28:45.514Z,9.05
2023-02-05T11:31:26.445Z,8.52
2023-02-05T11:34:11.775Z,8.32
2023-02-05T11:36:48.402Z,8.43
2023-02-05T11:39:34.129Z,7.82
2023-02-05T11:42:10.552Z,7.70
2023-02-05T11:44:49.447Z,6.68
2023-02-05T11:47:25.148Z,6.50
2023-02-05T11:49:53.512Z,8.18
2023-02-05T11:52:26.952Z,8.13
2023-02-05T11:54:56.809Z,7.03
2023-02-05T11:57:33.255Z,8.88
2023-02-05T12:00:03.379Z,8.38
2023-02-05T12:02:35.511Z,7.40
2023-02-05T12:05:20.750Z,7.00
2023-02-05T12:07:53.116Z,7.63
2023-02-05T12:10:31.724Z,7.72
2023-02-05T12:13:07.337Z,7.30
2023-02-05T12:15:42.629Z,7.35
2023-02-05T12:18:24.989Z,7.87
2023-02-05T12:21:07.692Z,7.55
2023-02-05T12:23:53.084Z,7.60
2023-02-05T12:26:33.341Z,6.97
2023-02-05T12:29:18.346Z,6.90
2023-02-05T12:31:57.176Z,7.03
2023-02-05T12:34:34.527Z,7.10
2023-02-05T12:37:13.125Z,6.57
2023-02-05T12:39:47.681Z,6.57
2023-02-05T12:42:27.161Z,7.70
2023-02-05T12:45:18.002Z,6.45
2023-02-05T12:48:08.335Z,7.63
2023-02-05T12:50:54.088Z,6.38
2023-02-05T12:53:44.027Z,6.77
2023-02-05T12:56:25.824Z,6.10
2023-02-05T12:59:00.636Z,5.75
2023-02-05T13:01:38.089Z,6.10
2023-02-05T13:04:08.324Z,5.80
2023-02-05T13:06:40.393Z,5.63
2023-02-05T13:09:17.412Z,6.05
2023-02-05T13:11:52.248Z,5.27
2023-02-05T13:14:24.767Z,5.97
2023-02-05T13:16:56.082Z,6.70
2023-02-05T13:19:29.488Z,7.63
2023-02-05T13:22:16.446Z,6.70
2023-02-05T13:25:08.598Z,5.80
2023-02-05T13:28:00.600Z,5.70
2023-02-05T13:30:35.755Z,5.40
2023-02-05T13:33:06.607Z,5.00
2023-02-05T13:35:40.993Z,4.60
2023-02-05T13:38:47.135Z,4.63
2023-02-05T13:41:43.018Z,4.60
2023-02-05T13:44:38.164Z,5.23
2023-02-05T13:47:34.239Z,4.70
2023-02-05T13:50:36.614Z,4.43
2023-02-05T13:53:19.135Z,4.13
2023-02-05T13:56:20.192Z,4.50
2023-02-05T13:58:52.022Z,4.27
2023-02-05T14:01:24.935Z,4.00
2023-02-05T14:04:01.643Z,3.88
2023-02-05T14:06:33.062Z,4.03
2023-02-05T14:09:04.970Z,4.38
2023-02-05T14:11:48.949Z,4.32
2023-02-05T14:14:29.470Z,4.65
2023-02-05T14:16:58.729Z,4.15
2023-02-05T14:19:56.919Z,4.47
2023-02-05T14:22:38.646Z,3.60
2023-02-05T14:25:46.002Z,3.63
2023-02-05T14:28:35.844Z,3.67
2023-02-05T14:31:05.949Z,3.38
2023-02-05T14:33:37.835Z,3.20
2023-02-05T14:36:40.949Z,3.30
2023-02-05T14:39:23.085Z,4.00
2023-02-05T14:41:55.082Z,3.70
2023-02-05T14:44:27.592Z,10.73
2023-02-05T14:46:59.652Z,7.90
2023-02-05T14:49:30.570Z,4.80
2023-02-05T14:52:02.778Z,4.93
2023-02-05T14:54:34.640Z,5.30
2023-02-05T14:57:13.902Z,7.25
2023-02-05T14:59:49.934Z,10.48
2023-02-05T15:02:55.571Z,14.52
2023-02-05T15:05:30.938Z,12.15
2023-02-05T15:08:09.717Z,10.73
2023-02-05T15:10:45.962Z,5.57
2023-02-05T15:13:16.101Z,5.72
2023-02-05T15:16:25.175Z,5.05
2023-02-05T15:18:54.997Z,5.25
2023-02-05T15:21:28.173Z,5.90
2023-02-05T15:24:03.683Z,6.20
2023-02-05T15:26:42.512Z,5.05
2023-02-05T15:29:17.534Z,4.53
2023-02-05T15:31:49.024Z,3.90
2023-02-05T15:34:30.442Z,3.47
2023-02-05T15:37:04.522Z,3.90
2023-02-05T15:39:47.952Z,3.70
2023-02-05T15:42:20.130Z,5.28
2023-02-05T15:44:48.381Z,5.43
2023-02-05T15:47:21.773Z,4.50
2023-02-05T15:49:52.786Z,5.75
2023-02-05T15:52:23.542Z,5.45
2023-02-05T15:54:55.854Z,4.20
2023-02-05T15:57:26.981Z,5.45
2023-02-05T15:59:56.299Z,4.55
2023-02-05T16:02:27.330Z,4.90
2023-02-05T16:04:57.294Z,4.25
2023-02-05T16:07:29.367Z,5.30
2023-02-05T16:10:00.677Z,7.55
2023-02-05T16:12:30.439Z,10.63
2023-02-05T16:14:59.792Z,8.07
2023-02-05T16:17:31.195Z,11.75
2023-02-05T16:20:08.229Z,13.65
2023-02-05T16:22:40.585Z,17.05
2023-02-05T16:25:21.224Z,7.57
2023-02-05T16:27:51.841Z,5.95
2023-02-05T16:30:23.145Z,11.73
2023-02-05T16:32:56.241Z,11.40
2023-02-05T16:35:28.557Z,12.50
2023-02-05T16:37:57.651Z,14.80
2023-02-05T16:40:36.438Z,18.40
2023-02-05T16:43:21.222Z,15.77
2023-02-05T16:46:25.731Z,11.10
2023-02-05T16:48:55.525Z,7.05
2023-02-05T16:51:51.621Z,4.72
2023-02-05T16:54:34.864Z,4.75
2023-02-05T16:57:09.586Z,4.75
2023-02-05T16:59:48.297Z,3.55
2023-02-05T17:02:29.202Z,4.18
2023-02-05T17:04:58.537Z,3.95
2023-02-05T17:07:26.870Z,4.20
2023-02-05T17:10:17.211Z,3.85
2023-02-05T17:12:57.695Z,4.20
2023-02-05T17:15:44.643Z,4.07
2023-02-05T17:18:27.430Z,4.25
2023-02-05T17:21:23.279Z,3.67
2023-02-05T17:23:51.960Z,3.75
2023-02-05T17:26:20.663Z,4.68
2023-02-05T17:28:54.720Z,4.65
2023-02-05T17:31:26.130Z,3.83
2023-02-05T17:33:55.520Z,4.22
2023-02-05T17:36:24.139Z,4.22
2023-02-05T17:38:52.903Z,3.80
2023-02-05T17:41:40.812Z,3.95
2023-02-05T17:44:13.559Z,4.10
2023-02-05T17:46:42.242Z,3.85
2023-02-05T17:49:10.303Z,3.15
2023-02-05T17:51:41.562Z,4.50
2023-02-05T17:54:14.173Z,4.05
2023-02-05T17:56:44.313Z,4.35
2023-02-05T17:59:15.376Z,4.93
2023-02-05T18:01:43.265Z,5.13
2023-02-05T18:04:11.874Z,5.32
2023-02-05T18:06:40.581Z,6.18
2023-02-05T18:09:08.628Z,5.10
2023-02-05T18:11:36.751Z,5.40
2023-02-05T18:14:04.627Z,5.40
2023-02-05T18:16:34.055Z,5.90
2023-02-05T18:19:01.994Z,5.82
2023-02-05T18:21:30.064Z,7.00
2023-02-05T18:23:57.957Z,6.63
2023-02-05T18:26:27.151Z,6.80
2023-02-05T18:28:55.386Z,6.65
2023-02-05T18:31:23.374Z,7.07
2023-02-05T18:33:54.063Z,6.47
2023-02-05T18:36:22.339Z,6.22
2023-02-05T18:38:50.239Z,5.75
2023-02-05T18:41:21.682Z,6.65
2023-02-05T18:43:49.899Z,6.85
2023-02-05T18:46:20.817Z,7.20
2023-02-05T18:48:49.974Z,6.75
2023-02-05T18:51:22.167Z,7.35
2023-02-05T18:53:50.925Z,7.50
2023-02-05T18:56:21.271Z,6.90
2023-02-05T18:58:53.472Z,7.53
2023-02-05T19:01:21.445Z,6.30
2023-02-05T19:03:52.601Z,7.10
2023-02-05T19:07:13.819Z,6.65
2023-02-05T19:09:43.443Z,10.55
2023-02-05T19:12:11.475Z,7.57
2023-02-05T19:14:39.395Z,8.65
2023-02-05T19:17:07.792Z,7.45
2023-02-05T19:19:35.744Z,6.82
2023-02-05T19:22:06.274Z,13.85
2023-02-05T19:24:35.286Z,12.27
2023-02-05T19:27:04.686Z,7.63
2023-02-05T19:29:37.965Z,7.25
2023-02-05T19:32:06.723Z,7.15
2023-02-05T19:34:35.417Z,18.70
2023-02-05T19:37:03.306Z,13.52
2023-02-05T19:39:31.166Z,9.15
2023-02-05T19:41:59.047Z,7.60
2023-02-05T19:44:30.825Z,9.75
2023-02-05T19:46:59.726Z,9.15
2023-02-05T19:49:27.759Z,11.07
2023-02-05T19:51:59.349Z,9.32
2023-02-05T19:54:27.311Z,8.73
2023-02-05T19:56:55.328Z,9.15
2023-02-05T19:59:23.222Z,9.55
2023-02-05T20:01:53.167Z,9.18
2023-02-05T20:04:24.209Z,8.98
2023-02-05T20:06:56.497Z,8.75
2023-02-05T20:09:24.511Z,9.90
2023-02-05T20:11:54.324Z,9.00
2023-02-05T20:14:23.127Z,11.38
2023-02-05T20:16:52.901Z,10.23
2023-02-05T20:19:21.434Z,9.18
2023-02-05T20:21:49.791Z,9.88
2023-02-05T20:24:17.856Z,10.57
2023-02-05T20:26:47.789Z,11.48
2023-02-05T20:29:32.984Z,12.60
2023-02-05T20:32:02.322Z,8.90
2023-02-05T20:34:34.020Z,8.80
2023-02-05T20:37:05.574Z,9.18
2023-02-05T20:39:35.244Z,11.50
2023-02-05T20:42:03.575Z,9.50
2023-02-05T20:44:34.732Z,11.55
2023-02-05T20:47:04.570Z,9.88
2023-02-05T20:49:32.485Z,9.00
2023-02-05T20:52:00.415Z,9.60
2023-02-05T20:54:28.528Z,9.20
2023-02-05T20:56:59.116Z,8.57
2023-02-05T20:59:27.562Z,9.70
2023-02-05T21:01:55.733Z,9.95
2023-02-05T21:04:25.539Z,9.02
2023-02-05T21:06:53.997Z,9.38
2023-02-05T21:09:22.402Z,8.77
2023-02-05T21:11:51.087Z,9.95
2023-02-05T21:14:18.958Z,12.88
2023-02-05T21:16:46.874Z,15.25
2023-02-05T21:19:14.787Z,15.45
2023-02-05T21:21:44.039Z,13.40
2023-02-05T21:24:15.209Z,12.45
2023-02-05T21:26:44.701Z,11.32
2023-02-05T21:29:14.092Z,11.25
2023-02-05T21:31:45.000Z,11.00
2023-02-05T21:34:15.301Z,11.77
2023-02-05T21:36:44.706Z,11.00
2023-02-05T21:39:15.639Z,9.95
2023-02-05T21:41:44.778Z,9.77
2023-02-05T21:44:13.239Z,9.68
2023-02-05T21:46:41.380Z,9.23
2023-02-05T21:49:09.475Z,10.63
2023-02-05T21:51:37.653Z,9.38
2023-02-05T21:54:07.472Z,9.60
2023-02-05T21:56:37.847Z,8.52
2023-02-05T21:59:06.565Z,8.73
2023-02-05T22:01:36.580Z,9.25
2023-02-05T22:04:07.936Z,9.52
2023-02-05T22:06:36.544Z,9.82
2023-02-05T22:09:07.554Z,9.95
2023-02-05T22:11:35.829Z,9.57
2023-02-05T22:14:03.797Z,9.20
2023-02-05T22:16:33.515Z,8.93
2023-02-05T22:19:02.296Z,10.23
2023-02-05T22:21:32.216Z,10.43
2023-02-05T22:24:01.585Z,9.70
2023-02-05T22:26:33.077Z,9.90
2023-02-05T22:29:01.855Z,10.70
2023-02-05T22:31:31.081Z,9.75
2023-02-05T22:33:59.555Z,9.13
2023-02-05T22:36:29.773Z,8.35
2023-02-05T22:38:58.022Z,9.00
2023-02-05T22:41:28.217Z,8.90
2023-02-05T22:43:58.774Z,9.10
2023-02-05T22:46:28.439Z,9.85
2023-02-05T22:48:58.579Z,9.82
2023-02-05T22:51:28.282Z,8.60
2023-02-05T22:53:57.081Z,9.80
2023-02-05T22:56:25.285Z,9.48
2023-02-05T22:58:54.179Z,9.77
2023-02-05T23:01:25.666Z,9.50
2023-02-05T23:03:54.226Z,9.35
2023-02-05T23:06:24.124Z,10.05
2023-02-05T23:08:53.535Z,9.18
2023-02-05T23:11:22.472Z,9.40
2023-02-05T23:13:50.795Z,8.82
2023-02-05T23:16:20.789Z,8.50
2023-02-05T23:18:51.608Z,8.75
2023-02-05T23:21:21.908Z,8.73
2023-02-05T23:23:50.634Z,8.57
2023-02-05T23:26:20.526Z,9.40
2023-02-05T23:28:49.247Z,8.13
2023-02-05T23:31:17.903Z,8.88
2023-02-05T23:33:46.069Z,8.95
2023-02-05T23:36:15.591Z,9.15
2023-02-05T23:38:43.503Z,9.57
2023-02-05T23:41:12.166Z,9.32
2023-02-05T23:43:40.735Z,9.65
2023-02-05T23:46:08.943Z,9.10
2023-02-05T23:48:36.872Z,9.95
2023-02-05T23:51:04.878Z,9.82
2023-02-05T23:53:34.131Z,9.57
2023-02-05T23:56:03.117Z,9.95
2023-02-05T23:58:30.992Z,10.43
